Charlie Lake, Canada
Current Conditions -  °F | °C
As of 8:00 PM on Sunday 23 Nov 2014 (Local Time) from CYXJ Reporting Station
Broken Clouds Broken Clouds  
Wind Chill: -7°   Ceiling: 17000
Heat Index:   Visibility: 15mi
Dew Point:   Wind: 7mph
Humidity: 78%   Direction: 340°NNW
Pressure: 29.8"   Gusts: NA
Location:  56.34°N, 121°W
Report Text: CYXJ 240300Z 34006KT 15SM FEW070 BKN170 M15/M18 A2980 RMK AC1AC6 SLP152
Loading
Personal Weather Stations






























Interactive Weather Map New forecast layout! Learn more

10-Day Weather Forecast

Advertisements
Track Severe Weather on mobile